createdAt,value
2019-03-26T00:00:55.510Z,77.75
2019-03-26T00:03:27.664Z,78.08
2019-03-26T00:05:58.185Z,78.41
2019-03-26T00:08:28.574Z,78.66
2019-03-26T00:10:58.926Z,78.37
2019-03-26T00:13:29.322Z,78.29
2019-03-26T00:15:59.780Z,79.00
2019-03-26T00:18:30.172Z,79.11
2019-03-26T00:21:00.619Z,79.07
2019-03-26T00:23:31.013Z,79.27
2019-03-26T00:26:01.472Z,79.19
2019-03-26T00:28:31.877Z,79.34
2019-03-26T00:31:02.347Z,79.37
2019-03-26T00:33:36.744Z,79.49
2019-03-26T00:36:05.356Z,79.79
2019-03-26T00:38:35.868Z,79.49
2019-03-26T00:41:06.285Z,79.63
2019-03-26T00:43:36.678Z,79.46
2019-03-26T00:46:07.327Z,79.61
2019-03-26T00:48:37.910Z,79.65
2019-03-26T00:51:08.416Z,79.49
2019-03-26T00:53:38.820Z,79.87
2019-03-26T00:56:09.275Z,79.61
2019-03-26T00:58:39.674Z,79.78
2019-03-26T01:01:10.130Z,79.79
2019-03-26T01:03:41.453Z,79.58
2019-03-26T01:06:11.986Z,79.69
2019-03-26T01:08:42.377Z,79.67
2019-03-26T01:11:12.842Z,79.73
2019-03-26T01:13:43.226Z,79.86
2019-03-26T01:16:13.666Z,80.34
2019-03-26T01:18:44.093Z,79.92
2019-03-26T01:21:14.531Z,80.13
2019-03-26T01:23:44.929Z,80.02
2019-03-26T01:26:15.252Z,79.54
2019-03-26T01:28:45.661Z,79.84
2019-03-26T01:31:16.041Z,79.95
2019-03-26T01:33:46.545Z,79.79
2019-03-26T01:36:16.962Z,79.71
2019-03-26T01:38:47.297Z,80.12
2019-03-26T01:41:17.737Z,79.96
2019-03-26T01:43:48.137Z,80.01
2019-03-26T01:46:18.748Z,79.76
2019-03-26T01:48:49.171Z,79.98
2019-03-26T01:51:19.615Z,80.18
2019-03-26T01:53:50.025Z,80.02
2019-03-26T01:56:20.461Z,80.05
2019-03-26T01:58:50.858Z,79.87
2019-03-26T02:01:21.325Z,79.70
2019-03-26T02:03:52.621Z,79.61
2019-03-26T02:06:23.091Z,79.70
2019-03-26T02:08:53.477Z,80.03
2019-03-26T02:11:23.906Z,79.99
2019-03-26T02:13:54.317Z,80.21
2019-03-26T02:16:24.745Z,79.99
2019-03-26T02:18:55.156Z,80.06
2019-03-26T02:21:25.591Z,80.34
2019-03-26T02:23:55.963Z,80.51
2019-03-26T02:26:26.417Z,80.69
2019-03-26T02:28:56.826Z,80.68
2019-03-26T02:31:27.269Z,80.27
2019-03-26T02:33:57.674Z,80.94
2019-03-26T02:36:28.136Z,80.75
2019-03-26T02:38:58.522Z,80.54
2019-03-26T02:41:28.971Z,80.81
2019-03-26T02:43:59.382Z,80.44
2019-03-26T02:46:29.829Z,80.68
2019-03-26T02:49:00.225Z,80.73
2019-03-26T02:51:30.658Z,80.80
2019-03-26T02:54:01.079Z,80.54
2019-03-26T02:56:31.508Z,80.53
2019-03-26T02:59:01.924Z,80.09
2019-03-26T03:01:32.320Z,80.13
2019-03-26T03:04:03.606Z,80.15
2019-03-26T03:06:34.194Z,80.33
2019-03-26T03:09:07.293Z,80.54
2019-03-26T03:11:37.731Z,80.59
2019-03-26T03:14:08.129Z,80.56
2019-03-26T03:16:38.575Z,80.63
2019-03-26T03:19:08.988Z,80.71
2019-03-26T03:21:39.433Z,80.83
2019-03-26T03:24:09.829Z,80.68
2019-03-26T03:26:42.740Z,80.90
2019-03-26T03:29:23.137Z,80.77
2019-03-26T03:31:59.041Z,80.92
2019-03-26T03:34:39.702Z,80.71
2019-03-26T03:37:16.400Z,80.76
2019-03-26T03:39:51.337Z,81.08
2019-03-26T03:42:27.247Z,80.98
2019-03-26T03:45:03.898Z,80.77
2019-03-26T03:47:40.615Z,81.16
2019-03-26T03:50:19.991Z,80.86
2019-03-26T03:52:56.821Z,81.08
2019-03-26T03:55:31.797Z,80.92
2019-03-26T03:58:09.121Z,80.97
2019-03-26T04:00:43.433Z,81.08
2019-03-26T04:03:21.662Z,80.96
2019-03-26T04:06:08.727Z,80.78
2019-03-26T04:08:36.295Z,81.30
2019-03-26T04:11:10.691Z,81.09
2019-03-26T04:13:46.283Z,81.23
2019-03-26T04:16:23.767Z,81.22
2019-03-26T04:18:59.509Z,81.37
2019-03-26T04:21:30.856Z,81.25
2019-03-26T04:24:01.288Z,81.50
2019-03-26T04:26:31.708Z,81.58
2019-03-26T04:29:02.168Z,81.00
2019-03-26T04:31:32.560Z,81.06
2019-03-26T04:34:03.018Z,81.23
2019-03-26T04:36:42.572Z,81.42
2019-03-26T04:39:19.260Z,81.54
2019-03-26T04:41:58.492Z,81.49
2019-03-26T04:44:34.990Z,81.14
2019-03-26T04:47:12.995Z,80.81
2019-03-26T04:49:45.212Z,81.10
2019-03-26T04:52:15.635Z,80.91
2019-03-26T04:54:46.094Z,80.48
2019-03-26T04:57:16.508Z,80.52
2019-03-26T04:59:46.950Z,80.42
2019-03-26T05:02:17.347Z,80.63
2019-03-26T05:04:47.833Z,80.77
2019-03-26T05:07:19.122Z,80.31
2019-03-26T05:09:49.648Z,79.55
2019-03-26T05:12:20.045Z,80.15
2019-03-26T05:14:50.518Z,80.23
2019-03-26T05:17:25.756Z,79.71
2019-03-26T05:19:56.920Z,79.32
2019-03-26T05:22:27.338Z,78.81
2019-03-26T05:24:57.802Z,78.80
2019-03-26T05:27:28.186Z,78.56
2019-03-26T05:29:58.656Z,78.07
2019-03-26T05:32:29.068Z,77.53
2019-03-26T05:34:59.519Z,77.47
2019-03-26T05:37:29.922Z,77.59
2019-03-26T05:40:00.373Z,76.88
2019-03-26T05:42:30.778Z,76.63
2019-03-26T05:45:01.151Z,76.49
2019-03-26T05:47:31.482Z,76.94
2019-03-26T05:50:01.940Z,75.85
2019-03-26T05:52:32.331Z,75.10
2019-03-26T05:55:02.772Z,74.88
2019-03-26T05:57:33.172Z,74.76
2019-03-26T06:00:04.826Z,75.10
2019-03-26T06:02:36.811Z,74.68
2019-03-26T06:05:08.288Z,73.91
2019-03-26T06:07:39.630Z,73.48
2019-03-26T06:10:10.671Z,73.59
2019-03-26T06:12:41.066Z,73.17
2019-03-26T06:15:12.539Z,72.09
2019-03-26T06:17:42.951Z,72.07
2019-03-26T06:20:13.886Z,71.79
2019-03-26T06:22:44.285Z,71.52
2019-03-26T06:25:14.723Z,71.57
2019-03-26T06:27:45.216Z,72.19
2019-03-26T06:30:15.760Z,72.68
2019-03-26T06:32:46.141Z,72.08
2019-03-26T06:35:16.654Z,70.81
2019-03-26T06:37:47.074Z,69.09
2019-03-26T06:40:17.988Z,69.39
2019-03-26T06:42:48.406Z,68.38
2019-03-26T06:45:18.873Z,66.98
2019-03-26T06:47:49.277Z,66.55
2019-03-26T06:50:22.775Z,67.63
2019-03-26T06:52:53.199Z,66.08
2019-03-26T06:55:23.636Z,64.26
2019-03-26T06:57:54.085Z,65.03
2019-03-26T07:00:32.245Z,66.41
2019-03-26T07:03:03.880Z,65.20
2019-03-26T07:05:34.323Z,65.97
2019-03-26T07:08:05.715Z,64.10
2019-03-26T07:10:36.253Z,64.39
2019-03-26T07:13:06.681Z,62.09
2019-03-26T07:15:37.136Z,61.70
2019-03-26T07:18:07.550Z,63.16
2019-03-26T07:20:38.029Z,65.00
2019-03-26T07:23:08.609Z,65.85
2019-03-26T07:25:39.072Z,67.03
2019-03-26T07:28:12.611Z,67.48
2019-03-26T07:31:07.083Z,67.20
2019-03-26T07:33:51.400Z,66.95
2019-03-26T07:36:59.557Z,66.32
2019-03-26T07:49:49.133Z,65.68
2019-03-26T07:52:43.112Z,67.25
2019-03-26T07:55:14.467Z,66.43
2019-03-26T07:57:44.915Z,66.24
2019-03-26T08:00:15.635Z,65.86
2019-03-26T08:02:46.084Z,65.60
2019-03-26T08:05:29.063Z,65.36
2019-03-26T08:07:58.118Z,64.17
2019-03-26T08:10:34.085Z,65.05
2019-03-26T08:13:17.286Z,64.02
2019-03-26T08:15:55.499Z,63.04
2019-03-26T08:18:28.096Z,63.02
2019-03-26T08:21:01.595Z,64.02
2019-03-26T08:23:32.005Z,62.75
2019-03-26T08:26:02.785Z,61.92
2019-03-26T08:28:35.025Z,62.50
2019-03-26T08:31:19.770Z,63.48
2019-03-26T08:33:50.685Z,61.83
2019-03-26T08:36:22.192Z,62.23
2019-03-26T08:38:53.082Z,61.65
2019-03-26T08:41:24.164Z,60.45
2019-03-26T08:43:54.768Z,60.79
2019-03-26T08:46:26.705Z,59.79
2019-03-26T08:48:59.560Z,60.83
2019-03-26T08:51:30.046Z,61.24
2019-03-26T08:54:06.970Z,60.49
2019-03-26T08:56:41.440Z,61.32
2019-03-26T08:59:11.955Z,60.67
2019-03-26T09:01:42.519Z,60.50
2019-03-26T09:04:14.661Z,60.14
2019-03-26T09:06:48.649Z,59.90
2019-03-26T09:09:19.195Z,60.97
2019-03-26T09:11:50.512Z,60.89
2019-03-26T09:14:21.507Z,60.21
2019-03-26T09:16:53.782Z,59.14
2019-03-26T09:19:27.137Z,58.91
2019-03-26T09:22:07.109Z,58.72
2019-03-26T09:24:40.140Z,57.75
2019-03-26T09:30:02.150Z,57.62
2019-03-26T09:32:33.375Z,56.77
2019-03-26T09:35:06.781Z,57.18
2019-03-26T09:37:40.300Z,56.84
2019-03-26T09:40:11.233Z,56.55
2019-03-26T09:42:41.878Z,56.26
2019-03-26T09:45:12.451Z,55.72
2019-03-26T09:47:42.906Z,56.01
2019-03-26T09:50:16.802Z,56.00
2019-03-26T09:52:47.228Z,54.93
2019-03-26T09:55:26.242Z,55.08
2019-03-26T09:57:56.801Z,55.58
2019-03-26T10:00:27.345Z,55.58
2019-03-26T10:03:03.751Z,55.42
2019-03-26T10:05:34.268Z,55.13
2019-03-26T10:08:10.553Z,53.83
2019-03-26T10:10:45.636Z,53.83
2019-03-26T10:13:19.709Z,53.72
2019-03-26T10:15:53.684Z,52.91
2019-03-26T10:18:24.366Z,51.31
2019-03-26T10:20:54.954Z,53.24
2019-03-26T10:23:27.142Z,52.73
2019-03-26T10:25:59.166Z,52.29
2019-03-26T10:28:31.200Z,51.70
2019-03-26T10:31:19.605Z,51.12
2019-03-26T10:33:50.118Z,51.12
2019-03-26T10:36:20.676Z,51.23
2019-03-26T10:39:05.002Z,50.12
2019-03-26T10:41:28.423Z,49.60
2019-03-26T10:44:00.216Z,49.05
2019-03-26T10:46:30.718Z,48.33
2019-03-26T10:49:01.193Z,45.00
2019-03-26T10:51:31.974Z,43.37
2019-03-26T10:54:03.210Z,43.78
2019-03-26T10:56:33.781Z,45.39
2019-03-26T10:59:04.493Z,46.92
2019-03-26T11:01:36.585Z,48.78
2019-03-26T11:04:07.948Z,48.24
2019-03-26T11:06:38.863Z,49.26
2019-03-26T11:09:23.145Z,47.60
2019-03-26T11:11:43.247Z,44.56
2019-03-26T11:14:14.930Z,44.88
2019-03-26T11:16:48.500Z,43.00
2019-03-26T11:19:18.964Z,44.88
2019-03-26T11:21:49.481Z,44.54
2019-03-26T11:24:20.263Z,44.08
2019-03-26T11:26:50.741Z,45.48
2019-03-26T11:29:22.699Z,45.81
2019-03-26T11:31:53.178Z,46.46
2019-03-26T11:34:23.616Z,44.97
2019-03-26T11:36:56.903Z,45.32
2019-03-26T11:39:32.719Z,45.85
2019-03-26T11:41:59.491Z,47.07
2019-03-26T11:44:29.976Z,46.55
2019-03-26T11:47:00.612Z,45.50
2019-03-26T11:49:34.330Z,44.70
2019-03-26T11:52:08.128Z,45.05
2019-03-26T11:54:38.543Z,44.28
2019-03-26T11:57:09.050Z,44.68
2019-03-26T11:59:39.457Z,43.70
2019-03-26T12:02:11.321Z,41.76
2019-03-26T12:04:41.777Z,41.83
2019-03-26T12:07:12.398Z,38.94
2019-03-26T12:09:46.577Z,39.47
2019-03-26T12:12:15.172Z,37.42
2019-03-26T12:14:46.745Z,35.93
2019-03-26T12:17:34.579Z,33.94
2019-03-26T12:20:10.304Z,35.76
2019-03-26T12:22:40.867Z,34.37
2019-03-26T12:25:11.274Z,34.07
2019-03-26T12:27:41.744Z,34.57
2019-03-26T12:30:14.244Z,33.80
2019-03-26T12:32:47.807Z,33.29
2019-03-26T12:35:30.191Z,34.52
2019-03-26T12:38:00.757Z,34.05
2019-03-26T12:40:31.277Z,34.33
2019-03-26T12:43:01.822Z,34.49
2019-03-26T12:45:32.316Z,33.10
2019-03-26T12:48:02.820Z,33.83
2019-03-26T12:50:33.329Z,33.70
2019-03-26T12:53:05.343Z,34.29
2019-03-26T12:55:35.823Z,33.50
2019-03-26T12:58:06.620Z,33.31
2019-03-26T13:00:37.490Z,33.71
2019-03-26T13:03:08.068Z,33.28
2019-03-26T13:05:38.601Z,33.89
2019-03-26T13:08:09.101Z,34.22
2019-03-26T13:10:52.415Z,34.05
2019-03-26T13:13:11.660Z,34.40
2019-03-26T13:15:43.023Z,35.07
2019-03-26T13:18:13.669Z,35.07
2019-03-26T13:20:44.591Z,35.16
2019-03-26T13:23:15.303Z,35.56
2019-03-26T13:25:45.792Z,35.91
2019-03-26T13:28:16.315Z,36.47
2019-03-26T13:30:46.782Z,36.38
2019-03-26T13:33:17.804Z,35.90
2019-03-26T13:35:48.300Z,35.98
2019-03-26T13:38:19.135Z,36.28
2019-03-26T13:40:51.086Z,36.67
2019-03-26T13:43:21.677Z,36.22
2019-03-26T13:45:52.557Z,36.15
2019-03-26T13:48:23.177Z,37.24
2019-03-26T13:50:53.767Z,38.53
2019-03-26T13:53:27.311Z,38.94
2019-03-26T13:55:57.826Z,39.25
2019-03-26T13:58:28.328Z,39.16
2019-03-26T14:00:59.276Z,40.77
2019-03-26T14:03:32.863Z,40.34
2019-03-26T14:06:04.217Z,40.33
2019-03-26T14:08:34.960Z,40.86
2019-03-26T14:11:05.679Z,40.05
2019-03-26T14:13:36.893Z,40.38
2019-03-26T14:16:08.266Z,40.16
2019-03-26T14:18:38.865Z,40.55
2019-03-26T14:21:11.090Z,40.95
2019-03-26T14:23:41.651Z,40.51
2019-03-26T14:26:12.104Z,41.04
2019-03-26T14:28:43.949Z,41.19
2019-03-26T14:31:20.869Z,40.45
2019-03-26T14:33:52.762Z,41.31
2019-03-26T14:36:24.410Z,40.38
2019-03-26T14:38:54.862Z,40.47
2019-03-26T14:41:25.289Z,40.05
2019-03-26T14:43:55.788Z,39.86
2019-03-26T14:46:26.210Z,40.13
2019-03-26T14:48:57.882Z,40.42
2019-03-26T14:51:28.372Z,41.03
2019-03-26T14:53:58.960Z,40.97
2019-03-26T14:56:29.484Z,41.44
2019-03-26T14:59:02.309Z,41.68
2019-03-26T15:01:32.784Z,41.63
2019-03-26T15:04:03.531Z,41.86
2019-03-26T15:06:33.994Z,41.85
2019-03-26T15:09:06.591Z,42.87
2019-03-26T15:11:37.059Z,41.92
2019-03-26T15:14:07.865Z,42.30
2019-03-26T15:16:40.268Z,41.69
2019-03-26T15:19:13.623Z,42.75
2019-03-26T15:21:44.032Z,42.75
2019-03-26T15:24:14.568Z,42.65
2019-03-26T15:26:46.501Z,41.84
2019-03-26T15:29:17.098Z,42.67
2019-03-26T15:31:47.736Z,42.15
2019-03-26T15:34:18.251Z,42.82
2019-03-26T15:36:48.727Z,42.80
2019-03-26T15:39:19.321Z,41.99
2019-03-26T15:41:50.436Z,42.77
2019-03-26T15:44:20.949Z,42.23
2019-03-26T15:46:51.415Z,42.66
2019-03-26T15:49:21.959Z,42.09
2019-03-26T15:51:52.501Z,42.12
2019-03-26T15:54:23.147Z,41.84
2019-03-26T15:56:53.870Z,42.94
2019-03-26T15:59:24.385Z,46.09
2019-03-26T16:01:54.877Z,47.75
2019-03-26T16:04:25.414Z,49.45
2019-03-26T16:06:57.275Z,49.76
2019-03-26T16:09:28.010Z,50.90
2019-03-26T16:11:58.794Z,51.79
2019-03-26T16:14:29.453Z,52.20
2019-03-26T16:17:00.757Z,52.35
2019-03-26T16:19:32.916Z,52.84
2019-03-26T16:22:03.645Z,53.57
2019-03-26T16:24:34.481Z,53.72
2019-03-26T16:27:05.162Z,54.27
2019-03-26T16:29:35.989Z,54.60
2019-03-26T16:32:06.622Z,56.28
2019-03-26T16:34:37.148Z,57.01
2019-03-26T16:37:07.703Z,57.24
2019-03-26T16:39:39.063Z,57.26
2019-03-26T16:42:09.727Z,56.98
2019-03-26T16:44:42.107Z,57.23
2019-03-26T16:47:14.615Z,57.57
2019-03-26T16:49:45.467Z,57.90
2019-03-26T16:52:16.180Z,58.75
2019-03-26T16:54:46.747Z,59.02
2019-03-26T16:57:17.775Z,59.44
2019-03-26T16:59:48.417Z,60.06
2019-03-26T17:02:18.841Z,60.63
2019-03-26T17:04:49.422Z,61.22
2019-03-26T17:07:19.939Z,61.66
2019-03-26T17:09:50.574Z,61.87
2019-03-26T17:12:21.214Z,62.48
2019-03-26T17:14:51.823Z,62.87
2019-03-26T17:17:23.351Z,63.04
2019-03-26T17:19:53.984Z,63.09
2019-03-26T17:22:24.575Z,63.44
2019-03-26T17:24:55.106Z,63.16
2019-03-26T17:27:28.914Z,63.25
2019-03-26T17:29:58.274Z,63.37
2019-03-26T17:32:28.801Z,63.28
2019-03-26T17:35:02.565Z,63.21
2019-03-26T17:37:33.201Z,62.68
2019-03-26T17:40:08.738Z,62.77
2019-03-26T17:42:42.162Z,62.76
2019-03-26T17:45:12.740Z,63.36
2019-03-26T17:47:43.177Z,63.43
2019-03-26T17:50:13.934Z,63.35
2019-03-26T17:52:44.372Z,63.97
2019-03-26T17:55:14.923Z,64.27
2019-03-26T17:57:45.292Z,64.35
2019-03-26T18:00:19.575Z,64.89
2019-03-26T18:02:49.962Z,64.49
2019-03-26T18:05:25.919Z,64.74
2019-03-26T18:07:56.523Z,64.72
2019-03-26T18:10:26.906Z,64.39
2019-03-26T18:12:58.761Z,64.84
2019-03-26T18:15:29.220Z,64.27
2019-03-26T18:18:00.507Z,64.54
2019-03-26T18:20:32.832Z,64.20
2019-03-26T18:23:03.129Z,63.92
2019-03-26T18:25:33.616Z,63.96
2019-03-26T18:28:04.029Z,63.78
2019-03-26T18:30:34.591Z,63.75
2019-03-26T18:33:04.967Z,63.46
2019-03-26T18:35:35.415Z,62.75
2019-03-26T18:38:05.821Z,62.89
2019-03-26T18:40:36.286Z,62.97
2019-03-26T18:43:06.700Z,62.50
2019-03-26T18:45:37.159Z,61.13
2019-03-26T18:48:07.557Z,60.93
2019-03-26T18:50:38.054Z,61.22
2019-03-26T18:53:08.439Z,61.44
2019-03-26T18:55:38.892Z,61.64
2019-03-26T18:58:09.301Z,61.52
2019-03-26T19:00:39.946Z,60.65
2019-03-26T19:03:10.356Z,61.40
2019-03-26T19:05:40.881Z,61.47
2019-03-26T19:08:11.295Z,61.12
2019-03-26T19:10:43.236Z,62.14
2019-03-26T19:13:19.711Z,62.17
2019-03-26T19:15:45.799Z,61.73
2019-03-26T19:18:16.527Z,62.15
2019-03-26T19:21:01.035Z,62.32
2019-03-26T19:23:19.686Z,62.48
2019-03-26T19:25:50.146Z,62.30
2019-03-26T19:28:20.573Z,62.17
2019-03-26T19:30:51.045Z,62.57
2019-03-26T19:33:21.436Z,62.18
2019-03-26T19:35:51.944Z,62.41
2019-03-26T19:38:22.317Z,62.20
2019-03-26T19:40:52.767Z,62.52
2019-03-26T19:43:23.110Z,62.24
2019-03-26T19:45:53.535Z,62.06
2019-03-26T19:48:23.965Z,62.12
2019-03-26T19:50:54.443Z,62.53
2019-03-26T19:53:24.867Z,62.83
2019-03-26T19:55:55.340Z,62.20
2019-03-26T19:58:25.721Z,62.06
2019-03-26T20:00:56.099Z,62.68
2019-03-26T20:03:26.513Z,62.40
2019-03-26T20:05:56.990Z,62.76
2019-03-26T20:08:27.349Z,62.95
2019-03-26T20:10:57.814Z,62.41
2019-03-26T20:13:28.244Z,63.13
2019-03-26T20:15:58.713Z,62.40
2019-03-26T20:18:29.988Z,62.57
2019-03-26T20:21:00.512Z,61.98
2019-03-26T20:23:30.846Z,62.38
2019-03-26T20:26:01.274Z,62.87
2019-03-26T20:28:31.611Z,62.57
2019-03-26T20:31:02.071Z,62.88
2019-03-26T20:33:32.470Z,61.89
2019-03-26T20:36:03.739Z,62.13
2019-03-26T20:38:34.156Z,61.95
2019-03-26T20:41:04.607Z,62.56
2019-03-26T20:43:37.580Z,62.13
2019-03-26T20:46:07.180Z,62.52
2019-03-26T20:48:37.607Z,62.32
2019-03-26T20:51:08.055Z,62.36
2019-03-26T20:53:38.458Z,62.27
2019-03-26T20:56:08.908Z,62.45
2019-03-26T20:58:39.328Z,62.01
2019-03-26T21:01:09.792Z,62.24
2019-03-26T21:03:40.185Z,62.49
2019-03-26T21:06:10.670Z,62.40
2019-03-26T21:08:41.061Z,62.41
2019-03-26T21:11:11.566Z,62.91
2019-03-26T21:13:50.698Z,62.77
2019-03-26T21:16:14.162Z,62.87
2019-03-26T21:18:45.483Z,62.99
2019-03-26T21:21:16.012Z,63.29
2019-03-26T21:23:46.421Z,63.47
2019-03-26T21:26:16.910Z,63.83
2019-03-26T21:28:47.305Z,63.34
2019-03-26T21:31:17.767Z,63.40
2019-03-26T21:33:48.143Z,63.86
2019-03-26T21:36:18.624Z,63.71
2019-03-26T21:38:49.036Z,63.09
2019-03-26T21:41:19.472Z,63.57
2019-03-26T21:44:03.322Z,63.06
2019-03-26T21:46:22.013Z,62.99
2019-03-26T21:48:52.410Z,63.53
2019-03-26T21:51:22.817Z,63.65
2019-03-26T21:53:53.238Z,63.83
2019-03-26T21:56:23.692Z,64.06
2019-03-26T21:58:54.075Z,64.72
2019-03-26T22:01:24.524Z,64.87
2019-03-26T22:03:54.957Z,65.17
2019-03-26T22:06:25.399Z,65.20
2019-03-26T22:08:55.791Z,65.15
2019-03-26T22:11:26.264Z,64.81
2019-03-26T22:13:56.653Z,64.89
2019-03-26T22:16:27.030Z,64.74
2019-03-26T22:18:58.299Z,65.09
2019-03-26T22:21:28.746Z,65.72
2019-03-26T22:23:59.145Z,65.51
2019-03-26T22:26:29.595Z,65.14
2019-03-26T22:28:59.986Z,65.17
2019-03-26T22:31:30.433Z,65.17
2019-03-26T22:34:00.820Z,65.52
2019-03-26T22:36:31.263Z,65.57
2019-03-26T22:39:01.655Z,65.66
2019-03-26T22:41:32.033Z,65.42
2019-03-26T22:44:02.449Z,65.77
2019-03-26T22:46:32.814Z,66.08
2019-03-26T22:49:03.214Z,65.90
2019-03-26T22:51:33.678Z,65.91
2019-03-26T22:54:04.081Z,66.71
2019-03-26T22:56:34.538Z,66.13
2019-03-26T22:59:04.934Z,66.30
2019-03-26T23:01:35.473Z,66.31
2019-03-26T23:04:05.909Z,66.60
2019-03-26T23:06:36.358Z,66.55
2019-03-26T23:09:07.071Z,67.14
2019-03-26T23:11:37.584Z,67.23
2019-03-26T23:14:07.981Z,67.18
2019-03-26T23:16:38.452Z,67.35
2019-03-26T23:19:09.808Z,67.48
2019-03-26T23:21:40.384Z,67.17
2019-03-26T23:24:10.756Z,67.60
2019-03-26T23:26:41.237Z,68.00
2019-03-26T23:29:11.672Z,68.76
2019-03-26T23:31:42.118Z,68.89
2019-03-26T23:34:12.547Z,68.83
2019-03-26T23:36:42.997Z,69.19
2019-03-26T23:39:13.400Z,68.99
2019-03-26T23:41:43.857Z,68.73
2019-03-26T23:44:25.228Z,68.87
2019-03-26T23:46:46.425Z,68.60
2019-03-26T23:49:16.821Z,68.82
2019-03-26T23:51:47.271Z,69.39
2019-03-26T23:54:17.706Z,69.76
2019-03-26T23:56:48.139Z,69.97
2019-03-26T23:59:18.522Z,70.04
